Time;durP1;ratioP1;P1;durP2;ratioP2;P2;SDS_P1;SDS_P2;PMS_P1;PMS_P2;Temp;Humidity;BMP_temperature;BMP_pressure;BME280_temperature;BME280_humidity;BME280_pressure;Samples;Min_cycle;Max_cycle;Signal;HPM_P1;HPM_P2
2021/03/03 00:00:43;;;;;;;22.27;11.98;;;6.40;99.90;;;;;;5015661;28;20022;-84
2021/03/03 00:03:09;;;;;;;23.95;11.82;;;6.50;99.90;;;;;;5015629;28;20376;-85
2021/03/03 00:05:35;;;;;;;22.70;11.82;;;6.50;99.90;;;;;;5015638;28;20029;-85
2021/03/03 00:08:01;;;;;;;25.08;12.02;;;6.60;99.90;;;;;;5015637;28;20079;-84
2021/03/03 00:10:26;;;;;;;19.50;11.25;;;6.40;99.90;;;;;;5033223;28;20056;-84
2021/03/03 00:12:52;;;;;;;20.85;12.25;;;6.50;99.90;;;;;;5015771;28;20492;-85
2021/03/03 00:15:18;;;;;;;22.20;11.40;;;6.60;99.90;;;;;;5019404;28;20167;-85
2021/03/03 00:17:44;;;;;;;23.65;12.00;;;6.60;99.90;;;;;;5019419;28;20022;-84
2021/03/03 00:20:11;;;;;;;22.60;11.75;;;6.70;99.90;;;;;;5019316;28;20021;-84
2021/03/03 00:22:36;;;;;;;27.60;11.07;;;6.40;99.90;;;;;;5019184;28;20103;-85
2021/03/03 00:25:03;;;;;;;24.50;11.88;;;6.40;99.90;;;;;;5030016;28;20077;-85
2021/03/03 00:27:29;;;;;;;20.75;11.00;;;6.30;99.90;;;;;;5056933;28;20025;-85
2021/03/03 00:29:55;;;;;;;21.88;11.05;;;6.30;99.90;;;;;;5055529;28;20043;-85
2021/03/03 00:32:20;;;;;;;22.25;11.20;;;6.20;99.90;;;;;;5055470;28;20112;-84
2021/03/03 00:34:46;;;;;;;22.10;10.95;;;6.40;99.90;;;;;;5056665;28;20108;-84
2021/03/03 00:37:12;;;;;;;26.42;11.77;;;6.40;99.90;;;;;;5056941;28;20079;-84
2021/03/03 00:39:37;;;;;;;28.23;11.70;;;6.30;99.90;;;;;;5055396;28;20025;-84
2021/03/03 00:42:03;;;;;;;22.35;11.10;;;6.30;99.90;;;;;;5055373;28;20021;-84
2021/03/03 00:44:29;;;;;;;21.38;11.30;;;6.10;99.90;;;;;;5055289;28;20484;-85
2021/03/03 00:46:55;;;;;;;21.55;11.73;;;6.20;99.90;;;;;;5055324;28;20056;-85
2021/03/03 00:49:20;;;;;;;19.52;10.90;;;6.30;99.90;;;;;;5056509;28;20017;-85
2021/03/03 00:51:46;;;;;;;24.58;12.65;;;6.30;99.90;;;;;;5055239;28;20362;-85
2021/03/03 00:54:12;;;;;;;22.05;11.75;;;6.20;99.90;;;;;;5055389;28;20025;-84
2021/03/03 00:56:38;;;;;;;23.05;12.00;;;5.90;99.90;;;;;;5055105;28;20017;-84
2021/03/03 00:59:03;;;;;;;23.50;11.07;;;5.90;99.90;;;;;;5056360;28;20089;-84
2021/03/03 01:01:29;;;;;;;17.42;10.73;;;5.80;99.90;;;;;;5054970;28;20476;-84
2021/03/03 01:03:55;;;;;;;17.52;10.55;;;5.70;99.90;;;;;;5055235;28;20028;-84
2021/03/03 01:06:20;;;;;;;22.02;10.55;;;5.90;99.90;;;;;;5054915;28;20025;-85
2021/03/03 01:08:46;;;;;;;24.50;11.88;;;5.90;99.90;;;;;;5054879;28;20029;-85
2021/03/03 01:11:12;;;;;;;19.95;11.18;;;6.10;99.90;;;;;;5056086;28;20492;-84
2021/03/03 01:13:38;;;;;;;17.30;10.18;;;6.20;99.90;;;;;;5054810;28;20031;-84
2021/03/03 01:16:04;;;;;;;22.77;12.05;;;6.20;99.90;;;;;;5056137;28;20028;-84
2021/03/03 01:18:30;;;;;;;23.15;11.05;;;6.20;99.90;;;;;;5055000;28;20056;-84
2021/03/03 01:20:56;;;;;;;17.40;9.93;;;6.10;99.90;;;;;;5054691;28;20018;-84
2021/03/03 01:23:22;;;;;;;18.33;10.48;;;6.40;99.90;;;;;;5054648;28;20032;-84
2021/03/03 01:25:47;;;;;;;18.02;10.85;;;6.40;99.90;;;;;;5053411;28;20111;-84
2021/03/03 01:28:13;;;;;;;27.55;11.18;;;6.40;99.90;;;;;;5054479;28;20060;-84
2021/03/03 01:30:39;;;;;;;19.42;10.80;;;6.30;99.90;;;;;;5054528;28;20029;-84
2021/03/03 01:33:05;;;;;;;24.75;11.70;;;5.90;99.90;;;;;;5054324;28;20388;-84
2021/03/03 01:35:31;;;;;;;20.75;11.18;;;5.70;99.90;;;;;;5054336;28;20032;-85
2021/03/03 01:37:56;;;;;;;20.42;11.65;;;5.70;99.90;;;;;;5054360;28;20104;-84
2021/03/03 01:40:22;;;;;;;22.38;11.52;;;5.80;99.90;;;;;;5054319;28;20557;-84
2021/03/03 01:42:48;;;;;;;31.05;12.50;;;5.90;99.90;;;;;;5054257;28;20435;-84
2021/03/03 01:45:17;;;;;;;27.42;11.82;;;6.20;99.90;;;;;;5054250;28;20365;-84
2021/03/03 01:47:42;;;;;;;24.13;11.18;;;6.10;99.90;;;;;;5054118;28;20025;-84
2021/03/03 01:50:10;;;;;;;22.20;11.30;;;5.80;99.90;;;;;;5054357;28;20083;-84
2021/03/03 01:52:38;;;;;;;23.38;11.82;;;5.80;99.90;;;;;;5054078;28;20029;-84
2021/03/03 01:55:04;;;;;;;22.88;11.43;;;5.90;99.90;;;;;;5053938;28;20116;-84
2021/03/03 01:57:33;;;;;;;18.08;10.10;;;6.00;99.90;;;;;;5053964;28;20036;-84
2021/03/03 02:00:00;;;;;;;23.42;10.63;;;6.10;99.90;;;;;;5055177;28;20109;-84
2021/03/03 02:02:25;;;;;;;21.48;10.52;;;6.00;99.90;;;;;;5053898;28;20045;-84
2021/03/03 02:04:55;;;;;;;25.88;11.77;;;5.80;99.90;;;;;;5053809;28;20025;-84
2021/03/03 02:07:30;;;;;;;18.98;11.27;;;5.60;99.90;;;;;;5053783;28;20438;-84
2021/03/03 02:10:07;;;;;;;21.20;11.55;;;5.70;99.90;;;;;;5053751;28;20032;-84
2021/03/03 02:12:39;;;;;;;26.85;10.68;;;5.80;99.90;;;;;;5053743;28;20036;-84
2021/03/03 02:15:08;;;;;;;22.42;10.98;;;5.80;99.90;;;;;;5053774;28;20123;-84
2021/03/03 02:17:35;;;;;;;18.65;11.07;;;5.90;99.90;;;;;;5053641;28;20025;-84
2021/03/03 02:20:06;;;;;;;22.05;10.98;;;5.90;99.90;;;;;;5053649;28;20052;-84
2021/03/03 02:22:53;;;;;;;21.38;11.23;;;6.00;99.90;;;;;;5053435;28;20037;-84
2021/03/03 02:25:33;;;;;;;19.55;9.88;;;6.20;99.90;;;;;;5053206;28;20405;-84
2021/03/03 02:28:01;;;;;;;19.65;9.95;;;6.20;99.90;;;;;;5053453;28;20503;-84
2021/03/03 02:30:29;;;;;;;20.75;11.02;;;6.20;99.90;;;;;;5053373;28;20063;-84
2021/03/03 02:32:58;;;;;;;21.38;11.10;;;6.20;99.90;;;;;;5054505;28;20025;-85
2021/03/03 02:35:25;;;;;;;24.02;11.63;;;6.30;99.90;;;;;;5053130;28;20032;-84
2021/03/03 02:37:52;;;;;;;21.35;11.18;;;6.10;99.90;;;;;;5053088;28;20029;-84
2021/03/03 02:40:18;;;;;;;23.27;10.82;;;6.20;99.90;;;;;;5053132;28;20161;-84
2021/03/03 02:42:44;;;;;;;20.85;12.05;;;6.20;99.90;;;;;;5054365;28;20025;-84
2021/03/03 02:45:18;;;;;;;22.98;12.10;;;5.70;99.90;;;;;;5053028;28;20057;-84
2021/03/03 02:47:45;;;;;;;23.38;11.55;;;5.30;99.90;;;;;;5053098;28;20481;-84
2021/03/03 02:50:12;;;;;;;26.33;11.57;;;5.20;99.90;;;;;;5052935;28;20043;-84
2021/03/03 02:52:57;;;;;;;23.50;11.73;;;5.50;99.90;;;;;;5052975;28;20192;-84
2021/03/03 02:55:25;;;;;;;20.08;11.27;;;5.70;99.90;;;;;;5052755;28;20541;-84
2021/03/03 02:57:55;;;;;;;22.60;10.30;;;5.60;99.90;;;;;;5052829;28;20025;-84
2021/03/03 03:00:24;;;;;;;22.80;10.52;;;5.50;99.90;;;;;;5052780;28;20027;-84
2021/03/03 03:03:02;;;;;;;22.30;10.93;;;5.70;99.90;;;;;;5054291;28;20025;-84
2021/03/03 03:05:30;;;;;;;19.65;11.77;;;5.80;99.90;;;;;;5054252;28;20021;-84
2021/03/03 03:07:59;;;;;;;20.25;11.15;;;5.80;99.90;;;;;;5052727;28;20480;-84
2021/03/03 03:10:26;;;;;;;22.25;11.48;;;5.60;99.90;;;;;;5052618;28;20025;-84
2021/03/03 03:12:54;;;;;;;21.77;10.50;;;5.40;99.90;;;;;;5052615;28;20033;-84
2021/03/03 03:15:23;;;;;;;24.02;10.57;;;5.40;99.90;;;;;;5052451;28;20029;-84
2021/03/03 03:17:54;;;;;;;20.58;10.10;;;5.50;99.90;;;;;;5052511;28;20044;-84
2021/03/03 03:20:20;;;;;;;17.98;10.38;;;5.80;99.90;;;;;;5052499;28;20025;-84
2021/03/03 03:22:47;;;;;;;19.95;12.02;;;6.10;99.90;;;;;;5052451;28;20476;-84
2021/03/03 03:25:16;;;;;;;19.13;10.48;;;6.00;99.90;;;;;;5052205;28;20443;-84
2021/03/03 03:27:47;;;;;;;19.75;10.82;;;6.00;99.90;;;;;;5052332;28;20083;-84
2021/03/03 03:30:14;;;;;;;23.25;12.13;;;5.80;99.90;;;;;;5052329;28;20494;-84
2021/03/03 03:32:41;;;;;;;27.60;11.50;;;5.60;99.90;;;;;;5052158;28;20021;-84
2021/03/03 03:35:09;;;;;;;21.60;10.90;;;5.60;99.90;;;;;;5052205;28;20377;-84
2021/03/03 03:37:36;;;;;;;16.88;10.18;;;5.40;99.90;;;;;;5052232;28;20114;-84
2021/03/03 03:40:02;;;;;;;17.70;10.23;;;5.60;99.90;;;;;;5052233;28;20051;-84
2021/03/03 03:42:32;;;;;;;22.23;10.75;;;5.50;99.90;;;;;;5053770;28;20021;-84
2021/03/03 03:45:00;;;;;;;23.45;10.60;;;5.60;99.90;;;;;;5053431;28;20468;-84
2021/03/03 03:47:26;;;;;;;19.83;10.68;;;5.50;99.90;;;;;;5051945;28;20033;-84
2021/03/03 03:49:52;;;;;;;22.63;11.73;;;5.60;99.90;;;;;;5051781;28;20029;-84
2021/03/03 03:52:19;;;;;;;23.27;10.88;;;5.40;99.90;;;;;;5052087;28;20056;-84
2021/03/03 03:54:51;;;;;;;23.63;11.02;;;5.40;99.90;;;;;;5052862;28;20033;-84
2021/03/03 03:57:18;;;;;;;18.60;11.27;;;5.50;99.90;;;;;;5052076;28;20048;-84
2021/03/03 03:59:44;;;;;;;25.60;11.85;;;5.40;99.90;;;;;;5052278;28;20028;-84
2021/03/03 04:02:11;;;;;;;20.98;12.48;;;5.10;99.90;;;;;;5052059;28;20379;-84
2021/03/03 04:04:36;;;;;;;20.40;10.93;;;5.10;99.90;;;;;;5051959;28;20028;-84
2021/03/03 04:07:03;;;;;;;21.15;11.32;;;5.30;99.90;;;;;;5051968;28;20420;-84
2021/03/03 04:09:29;;;;;;;23.92;11.38;;;5.30;99.90;;;;;;5053178;28;20025;-84
2021/03/03 04:11:55;;;;;;;21.08;11.00;;;5.30;99.90;;;;;;5051905;28;20108;-84
2021/03/03 04:14:21;;;;;;;19.88;10.95;;;5.10;99.90;;;;;;5053085;28;20032;-84
2021/03/03 04:16:46;;;;;;;17.30;9.98;;;5.30;99.90;;;;;;5051854;28;20021;-84
2021/03/03 04:19:12;;;;;;;20.35;11.02;;;5.50;99.90;;;;;;5051845;28;20078;-84
2021/03/03 04:21:38;;;;;;;16.85;10.10;;;5.60;99.90;;;;;;5053044;28;20045;-84
2021/03/03 04:24:04;;;;;;;19.05;9.80;;;5.30;99.90;;;;;;5051760;28;20485;-84
2021/03/03 04:26:30;;;;;;;22.25;11.55;;;5.30;99.90;;;;;;5035809;28;20052;-84
2021/03/03 04:28:55;;;;;;;18.52;11.00;;;5.30;99.90;;;;;;5015374;28;20025;-84
2021/03/03 04:31:21;;;;;;;18.42;11.27;;;5.30;99.90;;;;;;5015322;28;20029;-84
2021/03/03 04:33:47;;;;;;;16.88;10.63;;;5.40;99.90;;;;;;5033031;28;20022;-84
2021/03/03 04:36:12;;;;;;;19.63;11.75;;;5.10;99.90;;;;;;5032961;28;20045;-84
2021/03/03 04:38:38;;;;;;;19.00;10.15;;;5.30;99.90;;;;;;5015325;28;20076;-84
2021/03/03 04:41:03;;;;;;;23.33;11.40;;;5.30;99.90;;;;;;5015345;28;20116;-84
2021/03/03 04:43:29;;;;;;;18.65;10.98;;;5.50;99.90;;;;;;5015275;28;20432;-84
2021/03/03 04:45:55;;;;;;;26.02;11.40;;;5.30;99.90;;;;;;5015228;28;20029;-83
2021/03/03 04:48:21;;;;;;;19.95;11.25;;;5.20;99.90;;;;;;5015226;28;20121;-84
2021/03/03 04:50:46;;;;;;;23.02;11.50;;;5.00;99.90;;;;;;5032890;28;20028;-84
2021/03/03 04:53:12;;;;;;;21.40;11.32;;;5.00;99.90;;;;;;5033170;28;20033;-84
2021/03/03 04:55:38;;;;;;;25.23;12.27;;;5.10;99.90;;;;;;5032726;28;20058;-84
2021/03/03 04:58:03;;;;;;;22.77;12.15;;;5.30;99.90;;;;;;5015122;28;20029;-84
2021/03/03 05:00:29;;;;;;;19.98;11.27;;;5.20;99.90;;;;;;5016197;28;20044;-84
2021/03/03 05:02:55;;;;;;;21.98;11.20;;;5.20;99.90;;;;;;5036357;28;20021;-85
2021/03/03 05:05:20;;;;;;;20.33;11.10;;;5.40;99.90;;;;;;5018510;28;20027;-85
2021/03/03 05:07:46;;;;;;;22.65;11.82;;;5.30;99.90;;;;;;5018483;28;20021;-84
2021/03/03 05:10:12;;;;;;;22.88;11.15;;;5.10;99.90;;;;;;5018484;28;20040;-84
2021/03/03 05:12:38;;;;;;;19.83;10.48;;;5.20;99.90;;;;;;5018657;28;20026;-84
2021/03/03 05:15:04;;;;;;;18.00;10.40;;;5.30;99.90;;;;;;5018353;28;20025;-84
2021/03/03 05:17:30;;;;;;;18.88;10.00;;;5.50;99.90;;;;;;5018260;28;20113;-84
2021/03/03 05:19:56;;;;;;;18.80;10.90;;;5.40;99.90;;;;;;5018329;28;20120;-84
2021/03/03 05:22:22;;;;;;;23.98;11.48;;;5.50;99.90;;;;;;5035967;28;20075;-84
2021/03/03 05:24:47;;;;;;;18.73;10.32;;;5.60;99.90;;;;;;5017990;28;20107;-84
2021/03/03 05:27:13;;;;;;;21.10;12.02;;;5.70;99.90;;;;;;5018186;28;20025;-84
2021/03/03 05:29:39;;;;;;;18.83;11.15;;;5.50;99.90;;;;;;5018107;28;20530;-84
2021/03/03 05:32:05;;;;;;;18.63;10.25;;;5.20;99.90;;;;;;5017938;28;20053;-84
2021/03/03 05:34:30;;;;;;;18.50;9.88;;;5.50;99.90;;;;;;5017892;28;20030;-84
2021/03/03 05:36:56;;;;;;;19.77;11.57;;;5.70;99.90;;;;;;5017907;28;20021;-84
2021/03/03 05:39:22;;;;;;;18.90;11.13;;;5.60;99.90;;;;;;5017909;28;20028;-84
2021/03/03 05:41:47;;;;;;;21.67;9.95;;;5.70;99.90;;;;;;5017878;28;20032;-85
2021/03/03 05:44:14;;;;;;;22.42;10.90;;;5.80;99.90;;;;;;5017888;28;20385;-84
2021/03/03 05:46:42;;;;;;;16.92;10.02;;;5.50;99.90;;;;;;5017741;28;20481;-84
2021/03/03 05:49:15;;;;;;;21.65;10.70;;;5.50;99.90;;;;;;5035322;28;20382;-84
2021/03/03 05:51:42;;;;;;;21.65;11.35;;;5.50;99.90;;;;;;5017653;28;20032;-84
2021/03/03 05:54:08;;;;;;;18.42;11.18;;;5.20;99.90;;;;;;5017556;28;20029;-84
2021/03/03 05:56:35;;;;;;;18.23;9.93;;;5.20;99.90;;;;;;5017784;28;20116;-84
2021/03/03 05:59:01;;;;;;;18.33;10.05;;;5.40;99.90;;;;;;5017471;28;20028;-84
2021/03/03 06:01:27;;;;;;;20.45;10.48;;;5.40;99.90;;;;;;5035171;28;20026;-84
2021/03/03 06:03:53;;;;;;;16.70;10.45;;;5.50;99.90;;;;;;5017423;28;20025;-84
2021/03/03 06:06:20;;;;;;;20.23;11.02;;;5.50;99.90;;;;;;5017371;28;20060;-85
2021/03/03 06:08:46;;;;;;;18.48;9.70;;;5.60;99.90;;;;;;5035074;28;20431;-84
2021/03/03 06:11:13;;;;;;;22.25;9.52;;;5.50;99.90;;;;;;5016875;28;20029;-84
2021/03/03 06:13:39;;;;;;;26.58;12.00;;;5.20;99.90;;;;;;5035236;28;20444;-84
2021/03/03 06:16:05;;;;;;;19.25;10.85;;;5.10;99.90;;;;;;5017072;28;20022;-85
2021/03/03 06:18:31;;;;;;;20.08;11.52;;;5.00;99.90;;;;;;5017074;28;20021;-85
2021/03/03 06:20:57;;;;;;;22.55;11.13;;;5.10;99.90;;;;;;5017117;28;20071;-84
2021/03/03 06:23:28;;;;;;;17.80;9.27;;;4.90;99.90;;;;;;5016997;28;20491;-84
2021/03/03 06:25:56;;;;;;;19.02;10.32;;;5.10;99.90;;;;;;5034520;28;20512;-85
2021/03/03 06:28:35;;;;;;;16.02;9.60;;;5.40;99.90;;;;;;5034688;28;20040;-84
2021/03/03 06:31:22;;;;;;;18.25;10.95;;;5.40;99.90;;;;;;5034923;28;20033;-84
2021/03/03 06:33:48;;;;;;;21.13;11.93;;;5.30;99.90;;;;;;5016801;28;20029;-85
2021/03/03 06:36:28;;;;;;;30.70;12.90;;;5.20;99.90;;;;;;5016688;28;20051;-85
2021/03/03 06:38:55;;;;;;;19.75;10.45;;;4.80;99.90;;;;;;5034773;28;20484;-85
2021/03/03 06:41:21;;;;;;;22.45;12.18;;;4.70;99.90;;;;;;5016636;28;20029;-85
2021/03/03 06:43:58;;;;;;;22.55;11.43;;;5.20;99.90;;;;;;5016662;28;20022;-85
2021/03/03 06:46:24;;;;;;;17.88;10.38;;;5.30;99.90;;;;;;5016637;28;20094;-85
2021/03/03 06:48:50;;;;;;;23.05;11.02;;;5.40;99.90;;;;;;5034295;28;20031;-84
2021/03/03 06:51:28;;;;;;;17.65;9.88;;;5.60;99.90;;;;;;5016537;28;20112;-84
2021/03/03 06:53:56;;;;;;;16.33;10.27;;;5.50;99.90;;;;;;5016564;28;20484;-84
2021/03/03 06:56:41;;;;;;;21.42;10.32;;;5.30;99.90;;;;;;5016405;28;20056;-85
2021/03/03 06:59:20;;;;;;;18.88;9.68;;;5.70;99.90;;;;;;5016467;28;20464;-85
2021/03/03 07:01:50;;;;;;;22.50;10.02;;;5.70;99.90;;;;;;5016399;28;20057;-85
2021/03/03 07:04:26;;;;;;;21.17;11.10;;;5.70;99.90;;;;;;5016418;28;20017;-85
2021/03/03 07:06:54;;;;;;;25.55;12.82;;;5.70;99.90;;;;;;5016251;28;20029;-85
2021/03/03 07:09:21;;;;;;;27.10;12.32;;;5.60;99.90;;;;;;5016218;28;20025;-84
2021/03/03 07:11:47;;;;;;;28.05;14.23;;;5.40;99.90;;;;;;5016153;28;20018;-84
2021/03/03 07:14:22;;;;;;;28.20;13.98;;;5.40;99.90;;;;;;5016151;28;20362;-85
2021/03/03 07:17:06;;;;;;;;;;;5.50;99.90;;;;;;5016488;28;20341;-84
2021/03/03 07:19:33;;;;;;;20.75;11.27;;;5.50;99.90;;;;;;5016091;28;19917;-84
2021/03/03 07:22:01;;;;;;;18.60;10.68;;;5.80;99.90;;;;;;5033718;28;20484;-85
2021/03/03 07:24:26;;;;;;;17.73;10.60;;;5.70;99.90;;;;;;5015173;28;20052;-84
2021/03/03 07:26:53;;;;;;;22.23;11.73;;;5.60;99.90;;;;;;5015978;28;20033;-84
2021/03/03 07:29:19;;;;;;;23.38;12.32;;;5.60;99.90;;;;;;5015942;28;20041;-84
2021/03/03 07:31:45;;;;;;;20.98;11.25;;;5.70;99.90;;;;;;5033522;28;20029;-84
2021/03/03 07:34:11;;;;;;;18.75;11.70;;;5.90;99.90;;;;;;5016414;28;20025;-84
2021/03/03 07:36:49;;;;;;;19.60;10.70;;;5.80;99.90;;;;;;5033442;28;20025;-84
2021/03/03 07:39:19;;;;;;;22.85;12.38;;;5.80;99.90;;;;;;5015828;28;20052;-84
2021/03/03 07:41:47;;;;;;;22.67;11.95;;;5.80;99.90;;;;;;5033744;28;20067;-84
2021/03/03 07:44:18;;;;;;;21.02;12.00;;;5.80;99.90;;;;;;5015718;28;20021;-84
2021/03/03 07:46:47;;;;;;;22.08;11.80;;;5.80;99.90;;;;;;5015786;28;20439;-84
2021/03/03 07:49:20;;;;;;;22.85;12.32;;;5.90;99.90;;;;;;5033404;28;20030;-84
2021/03/03 07:51:46;;;;;;;17.02;10.20;;;5.70;99.90;;;;;;5015720;28;20079;-85
2021/03/03 07:54:15;;;;;;;18.05;10.55;;;5.80;99.90;;;;;;5015584;28;20034;-85
2021/03/03 07:56:45;;;;;;;22.92;11.25;;;5.80;99.90;;;;;;5015509;28;20026;-85
2021/03/03 07:59:12;;;;;;;23.55;10.93;;;6.10;99.90;;;;;;5015892;28;20496;-85
2021/03/03 08:01:38;;;;;;;21.25;10.73;;;6.20;99.90;;;;;;5015564;28;20025;-85
2021/03/03 08:04:04;;;;;;;23.17;12.05;;;6.30;99.90;;;;;;5033297;28;20032;-85
2021/03/03 08:06:36;;;;;;;27.77;12.50;;;6.10;99.90;;;;;;5015555;28;20382;-85
2021/03/03 08:09:08;;;;;;;19.45;11.00;;;6.00;99.90;;;;;;5015540;28;20092;-85
2021/03/03 08:11:38;;;;;;;24.80;12.15;;;6.10;99.90;;;;;;5015529;28;20473;-85
2021/03/03 08:14:31;;;;;;;20.02;10.93;;;6.10;99.90;;;;;;5033246;28;20022;-84
2021/03/03 08:17:03;;;;;;;20.52;11.55;;;6.40;99.90;;;;;;5033185;28;20025;-85
2021/03/03 08:19:47;;;;;;;19.23;10.50;;;6.50;99.90;;;;;;5033119;28;20032;-85
2021/03/03 08:22:13;;;;;;;23.48;11.63;;;6.60;99.90;;;;;;5015308;28;20028;-85
2021/03/03 08:24:39;;;;;;;24.08;11.30;;;6.50;99.90;;;;;;5014970;28;20021;-85
2021/03/03 08:27:30;;;;;;;20.65;10.80;;;6.20;99.90;;;;;;5015372;28;20075;-85
2021/03/03 08:30:24;;;;;;;17.65;10.80;;;5.90;99.90;;;;;;5015200;28;20396;-85
2021/03/03 08:32:50;;;;;;;19.27;10.90;;;6.40;99.90;;;;;;5014090;28;20474;-85
2021/03/03 08:35:39;;;;;;;22.40;10.95;;;6.20;99.90;;;;;;5017473;28;20029;-85
2021/03/03 08:38:17;;;;;;;21.00;11.70;;;6.20;99.90;;;;;;5036662;28;20024;-85
2021/03/03 08:40:42;;;;;;;19.77;10.63;;;6.30;99.90;;;;;;5018837;28;20025;-86
2021/03/03 08:43:36;;;;;;;18.95;10.35;;;6.60;99.90;;;;;;5019138;28;20025;-86
2021/03/03 08:46:22;;;;;;;18.65;11.13;;;6.50;99.90;;;;;;5018544;28;20481;-85
2021/03/03 08:48:57;;;;;;;20.58;10.52;;;6.80;99.90;;;;;;5019431;28;20416;-86
2021/03/03 08:51:36;;;;;;;18.25;10.35;;;6.80;99.90;;;;;;5019152;28;20028;-85
2021/03/03 08:54:16;;;;;;;22.95;11.85;;;7.00;99.90;;;;;;5018647;28;20075;-85
2021/03/03 08:56:53;;;;;;;23.48;11.40;;;7.20;99.90;;;;;;5019733;28;20092;-85
2021/03/03 08:59:37;;;;;;;15.45;10.00;;;7.20;99.90;;;;;;5036365;28;20088;-85
2021/03/03 09:02:21;;;;;;;22.83;11.30;;;7.20;99.90;;;;;;5018763;28;20018;-85
2021/03/03 09:04:51;;;;;;;21.87;10.60;;;7.10;99.90;;;;;;5018753;28;20583;-85
2021/03/03 09:07:29;;;;;;;25.25;11.73;;;7.20;99.90;;;;;;5036195;28;20021;-86
2021/03/03 09:10:03;;;;;;;24.80;11.02;;;7.20;99.90;;;;;;5019162;28;20032;-86
2021/03/03 09:12:38;;;;;;;19.90;10.20;;;7.10;99.90;;;;;;5036191;28;20543;-86
2021/03/03 09:15:05;;;;;;;19.05;10.75;;;7.20;99.90;;;;;;5018992;28;20539;-86
2021/03/03 09:17:34;;;;;;;21.48;10.80;;;7.10;99.90;;;;;;5018621;28;20028;-86
2021/03/03 09:20:12;;;;;;;17.58;10.63;;;7.20;99.90;;;;;;5018597;28;20028;-85
2021/03/03 09:22:43;;;;;;;17.83;10.68;;;7.30;99.90;;;;;;5018358;28;20029;-85
2021/03/03 09:25:21;;;;;;;17.30;9.23;;;7.30;99.90;;;;;;5025893;28;20068;-85
2021/03/03 09:27:52;;;;;;;17.33;10.10;;;7.60;99.90;;;;;;5054427;28;20025;-85
2021/03/03 09:30:20;;;;;;;19.25;10.20;;;7.70;99.90;;;;;;5055570;28;20119;-85
2021/03/03 09:32:47;;;;;;;19.60;10.15;;;7.80;99.90;;;;;;5039374;28;20465;-85
2021/03/03 09:35:14;;;;;;;19.35;10.25;;;7.90;99.90;;;;;;5054701;28;20025;-85
2021/03/03 09:37:45;;;;;;;18.10;10.40;;;7.90;99.90;;;;;;5055758;28;20025;-85
2021/03/03 09:40:14;;;;;;;23.48;10.60;;;7.80;99.90;;;;;;5054767;28;20021;-85
2021/03/03 09:42:48;;;;;;;21.33;10.68;;;7.80;99.90;;;;;;5054803;28;20018;-85
2021/03/03 09:45:22;;;;;;;14.93;9.50;;;7.80;99.90;;;;;;5054584;28;20025;-85
2021/03/03 09:47:48;;;;;;;15.77;9.70;;;8.00;99.90;;;;;;5054920;28;20102;-85
2021/03/03 09:50:22;;;;;;;114.82;49.72;;;8.10;99.90;;;;;;5054538;28;20086;-84
2021/03/03 09:52:53;;;;;;;36.83;17.63;;;8.10;99.90;;;;;;5054521;28;20055;-84
2021/03/03 09:55:24;;;;;;;47.42;20.60;;;8.10;99.90;;;;;;5054722;28;20032;-85
2021/03/03 09:57:54;;;;;;;20.52;11.57;;;8.30;99.90;;;;;;5056005;28;20041;-85
2021/03/03 10:00:25;;;;;;;23.42;9.75;;;8.50;99.90;;;;;;5054364;28;20067;-85
2021/03/03 10:02:57;;;;;;;15.43;8.70;;;8.50;99.90;;;;;;5054607;28;20025;-85
2021/03/03 10:05:27;;;;;;;20.92;9.90;;;8.60;99.90;;;;;;5054361;28;20036;-85
2021/03/03 10:07:58;;;;;;;21.88;10.73;;;8.60;99.90;;;;;;5055148;28;20365;-86
2021/03/03 10:10:26;;;;;;;22.80;13.43;;;8.70;99.90;;;;;;5054404;28;20123;-85
2021/03/03 10:12:53;;;;;;;17.67;10.73;;;8.90;99.90;;;;;;5055135;28;20025;-85
2021/03/03 10:23:18;;;;;;;18.92;11.02;;;9.70;99.90;;;;;;5014496;28;20448;-90
2021/03/03 10:33:04;;;;;;;20.83;10.23;;;10.00;99.90;;;;;;4956085;28;20528;-90
2021/03/03 10:35:30;;;;;;;28.77;11.55;;;10.20;99.90;;;;;;4983617;28;20073;-90
2021/03/03 10:38:10;;;;;;;28.48;13.35;;;10.40;99.90;;;;;;5015623;28;20036;-89
2021/03/03 10:41:13;;;;;;;23.08;11.93;;;10.60;99.90;;;;;;5054432;28;20423;-90
2021/03/03 10:43:47;;;;;;;21.25;11.07;;;10.80;99.90;;;;;;5054666;28;20029;-90
2021/03/03 10:46:18;;;;;;;23.50;11.20;;;10.90;99.90;;;;;;5054459;28;20029;-90
2021/03/03 10:48:45;;;;;;;21.88;10.10;;;11.10;99.90;;;;;;5054004;28;20116;-90
2021/03/03 10:51:13;;;;;;;32.42;16.98;;;11.10;99.90;;;;;;5055033;28;20028;-90
2021/03/03 10:53:52;;;;;;;25.73;14.07;;;11.20;99.90;;;;;;5053720;28;20025;-91
2021/03/03 10:56:47;;;;;;;24.20;10.43;;;11.40;99.90;;;;;;5053869;28;20021;-90
2021/03/03 10:59:27;;;;;;;21.23;12.07;;;11.40;99.90;;;;;;5046405;28;20372;-90
2021/03/03 11:01:57;;;;;;;20.58;11.18;;;11.50;99.90;;;;;;5055221;28;20017;-90
2021/03/03 11:04:37;;;;;;;27.27;11.80;;;11.60;99.90;;;;;;5053430;28;20021;-90
2021/03/03 11:07:03;;;;;;;31.33;12.57;;;11.60;99.90;;;;;;5053446;28;20396;-90
2021/03/03 11:09:28;;;;;;;24.13;12.50;;;11.70;99.90;;;;;;5053811;28;20039;-91
2021/03/03 11:11:57;;;;;;;30.35;12.95;;;11.70;99.90;;;;;;5053681;28;20468;-91
2021/03/03 11:14:24;;;;;;;29.20;12.70;;;11.70;99.90;;;;;;5054712;28;20529;-88
2021/03/03 11:16:51;;;;;;;28.88;11.77;;;11.80;99.90;;;;;;5053731;28;20079;-91
2021/03/03 11:19:17;;;;;;;23.70;11.77;;;12.00;99.90;;;;;;5054012;28;20033;-91
2021/03/03 11:21:43;;;;;;;22.65;11.93;;;12.10;99.90;;;;;;5053713;28;20083;-90
2021/03/03 11:24:09;;;;;;;29.00;11.88;;;12.10;99.90;;;;;;5053616;28;20021;-91
2021/03/03 11:26:37;;;;;;;23.67;11.88;;;12.20;99.90;;;;;;5053479;28;20025;-90
2021/03/03 11:29:04;;;;;;;24.20;11.02;;;12.40;99.90;;;;;;5053808;28;20122;-90
2021/03/03 11:59:59;;;;;;;25.38;11.55;;;12.70;99.30;;;;;;4973665;28;20073;-90
2021/03/03 12:02:25;;;;;;;24.48;11.60;;;12.60;99.30;;;;;;4972420;28;20031;-89
2021/03/03 12:05:27;;;;;;;21.30;11.60;;;12.40;99.90;;;;;;4973612;28;20030;-90
2021/03/03 12:08:25;;;;;;;27.20;11.43;;;12.30;99.90;;;;;;5008802;28;20029;-90
2021/03/03 12:14:09;;;;;;;25.73;11.50;;;12.50;99.90;;;;;;5030584;28;20079;-89
2021/03/03 12:17:05;;;;;;;25.92;10.93;;;12.60;99.90;;;;;;5020220;28;20392;-90
2021/03/03 12:20:15;;;;;;;27.38;11.40;;;12.60;98.80;;;;;;5019787;28;20481;-90
2021/03/03 12:22:40;;;;;;;22.65;10.27;;;12.70;97.70;;;;;;5021053;28;20029;-90
2021/03/03 12:25:07;;;;;;;29.80;11.35;;;12.80;97.40;;;;;;5021178;28;20079;-91
2021/03/03 12:27:32;;;;;;;31.70;11.88;;;12.80;96.80;;;;;;5020281;28;20484;-90
2021/03/03 12:29:58;;;;;;;23.27;11.18;;;12.80;96.50;;;;;;5020163;28;20032;-90
2021/03/03 12:32:24;;;;;;;19.58;10.65;;;12.90;97.00;;;;;;5020714;28;20030;-90
2021/03/03 12:34:49;;;;;;;21.80;10.60;;;12.90;98.20;;;;;;5021179;28;20369;-90
2021/03/03 12:37:15;;;;;;;26.15;11.00;;;13.00;97.70;;;;;;5020200;28;20037;-90
2021/03/03 12:39:41;;;;;;;24.73;12.02;;;13.00;97.70;;;;;;5046688;28;20041;-90
2021/03/03 12:42:10;;;;;;;28.92;11.55;;;13.00;98.10;;;;;;5056319;28;20021;-90
2021/03/03 12:44:55;;;;;;;27.15;12.30;;;13.10;98.20;;;;;;5056149;28;20028;-90
2021/03/03 12:47:25;;;;;;;24.52;11.77;;;13.00;97.80;;;;;;5056653;28;20017;-90
2021/03/03 12:49:51;;;;;;;24.42;11.13;;;13.20;97.40;;;;;;5056776;28;20021;-90
2021/03/03 12:52:19;;;;;;;26.27;11.15;;;13.20;96.90;;;;;;5056678;28;20396;-90
2021/03/03 12:55:02;;;;;;;22.50;10.82;;;13.20;96.50;;;;;;5056624;28;20452;-91
2021/03/03 12:57:31;;;;;;;24.00;11.55;;;13.20;96.40;;;;;;5056891;28;20040;-91
2021/03/03 13:10:22;;;;;;;21.77;11.25;;;13.20;95.80;;;;;;5016967;28;20123;-92
2021/03/03 13:13:00;;;;;;;24.60;11.53;;;13.20;95.10;;;;;;5018122;28;20026;-93
2021/03/03 13:15:35;;;;;;;24.85;11.13;;;13.20;95.00;;;;;;5017734;28;20585;-94
2021/03/03 13:18:01;;;;;;;29.33;11.95;;;13.40;95.10;;;;;;5060916;28;20384;-94
2021/03/03 13:20:27;;;;;;;26.67;11.70;;;13.40;95.10;;;;;;5058571;28;20017;-93
2021/03/03 13:22:52;;;;;;;28.95;11.45;;;13.40;94.40;;;;;;5058796;28;20024;-94
2021/03/03 13:25:18;;;;;;;31.05;12.15;;;13.40;94.50;;;;;;5058885;28;20183;-94
2021/03/03 13:27:44;;;;;;;26.77;10.70;;;13.50;94.60;;;;;;5058390;28;20052;-93
2021/03/03 13:30:11;;;;;;;22.67;11.88;;;13.50;94.00;;;;;;5058635;28;20380;-94
2021/03/03 13:32:37;;;;;;;26.75;11.90;;;13.50;94.40;;;;;;5057474;28;20477;-93
2021/03/03 13:35:06;;;;;;;21.55;11.40;;;13.50;93.70;;;;;;5057504;28;20033;-93
2021/03/03 13:37:31;;;;;;;29.88;11.25;;;13.50;93.90;;;;;;5064244;28;20028;-93
2021/03/03 13:39:57;;;;;;;26.20;11.48;;;13.50;94.30;;;;;;5049831;28;20485;-95
2021/03/03 13:42:23;;;;;;;25.20;11.13;;;13.40;94.40;;;;;;5042796;28;20029;-96
2021/03/03 13:44:48;;;;;;;28.25;13.25;;;13.50;94.00;;;;;;5025005;28;20044;-95